CYMX/YMX METAR and TAF weather

Enter ICAO airport designator
Station Type Date Time Source
CYMX METAR 2021/01/17 19:38 UTC NOAA

CYMX 171938Z 25009G18KT 3SM -SHSN FEW006 BKN013 OVC023 M01/M02 A2934 RMK SF1CU5SC2 SLP940


Station Type Date Time Source
CYMX Decoded METAR 2021/01/17 19:38 UTC NOAA

Montreal / Mirabel, Canada (CYMX) 45-41N 074-02W
Jan 17, 2021 - 02:38 PM EST / 2021.01.17 1938 UTC
Wind: from the WSW (250 degrees) at 10 MPH (9 KT) gusting to 21 MPH (18 KT):0
Visibility: 3 mile(s):0
Sky conditions: overcast
Weather: light snow showers
Temperature: 30 F (-1 C)
Windchill: 21 F (-6 C):1
Dew Point: 28 F (-2 C)
Relative Humidity: 92%
Pressure (altimeter): 29.34 in. Hg (993 hPa)
ob: CYMX 171938Z 25009G18KT 3SM -SHSN FEW006 BKN013 OVC023 M01/M02 A2934 RMK SF1CU5SC2 SLP940
cycle: 19

Station Type Date Time Source
CYMX TAF 2021/01/17 18:45 UTC NOAA

TAF TAF CYMX 171740Z 1718/1818 25010G20KT P6SM SCT015 BKN060
TEMPO 1718/1720 4SM -SHSN BKN015 OVC030
FM172000 26010KT P6SM BKN030
TEMPO 1720/1722 5SM -SHSN OVC020
BECMG 1802/1804 27005KT
RMK NXT FCST BY 180000Z

Example: see airport list